SBCG

Campo Grande International Airport

Airport
ICAO code
SBCG
IATA Code
CGR
Summary
ICAO Region
CARSAM
ICAO Territory
Location

Campo Grande, Mato Grosso do Sul

Serving
Campo Grande
Elevation
1834 ft
Coordinates
20° 28' 10" S , 54° 40' 13" W
KCC
Metar
SBCG 191200Z 09011KT 9999 FEW010 21/18 Q1017

Campo Grande International Airport, sometimes also informally referred to as Antônio João Airport, after the neighborhood where it is located, is the airport serving Campo Grande, Brazil.

Climatology

Tropical savannah climate (Köppen climate classification Aw)

Runways

Designator Length Width Surface Rops
6/24 2600 43 CON Yes/Yes

Airport map

Aerial View

SKYbrary Partners:

Safety knowledge contributed by: